createdAt,value
2022-08-30T00:04:05.520Z,1.30
2022-08-30T00:09:12.672Z,1.27
2022-08-30T00:14:18.683Z,1.70
2022-08-30T00:19:25.800Z,1.92
2022-08-30T00:24:32.921Z,1.50
2022-08-30T00:29:38.903Z,1.30
2022-08-30T00:34:44.342Z,1.20
2022-08-30T00:45:26.034Z,1.92
2022-08-30T00:50:36.184Z,1.60
2022-08-30T00:55:44.279Z,1.95
2022-08-30T01:00:51.150Z,1.77
2022-08-30T01:05:59.005Z,1.40
2022-08-30T01:11:06.514Z,2.10
2022-08-30T01:16:12.887Z,1.45
2022-08-30T01:21:22.393Z,1.65
2022-08-30T01:26:31.476Z,1.98
2022-08-30T01:31:37.654Z,1.55
2022-08-30T01:36:45.323Z,1.52
2022-08-30T01:41:53.133Z,2.00
2022-08-30T01:46:59.003Z,1.70
2022-08-30T01:52:05.801Z,1.70
2022-08-30T01:57:14.980Z,1.77
2022-08-30T02:02:23.224Z,1.80
2022-08-30T02:07:30.030Z,2.05
2022-08-30T02:12:37.307Z,2.03
2022-08-30T02:17:43.238Z,1.98
2022-08-30T02:22:49.544Z,1.92
2022-08-30T02:27:56.608Z,2.05
2022-08-30T02:33:02.499Z,2.30
2022-08-30T02:38:09.163Z,2.15
2022-08-30T02:43:16.982Z,2.50
2022-08-30T02:48:22.770Z,2.17
2022-08-30T02:53:28.428Z,2.03
2022-08-30T02:58:35.844Z,2.88
2022-08-30T03:03:42.244Z,3.20
2022-08-30T03:08:47.952Z,2.38
2022-08-30T03:13:55.233Z,2.50
2022-08-30T03:19:00.912Z,2.55
2022-08-30T03:24:07.170Z,2.72
2022-08-30T03:29:14.296Z,2.60
2022-08-30T03:34:20.277Z,2.40
2022-08-30T03:39:26.694Z,2.85
2022-08-30T03:44:33.628Z,2.58
2022-08-30T03:49:39.314Z,2.97
2022-08-30T03:54:44.802Z,2.50
2022-08-30T03:59:52.763Z,2.33
2022-08-30T04:04:58.366Z,1.90
2022-08-30T04:10:04.265Z,1.40
2022-08-30T04:15:13.245Z,2.08
2022-08-30T04:20:18.902Z,2.85
2022-08-30T04:25:24.753Z,1.70
2022-08-30T04:30:32.432Z,2.15
2022-08-30T04:35:38.108Z,2.25
2022-08-30T04:40:44.302Z,1.90
2022-08-30T04:45:52.659Z,1.52
2022-08-30T04:50:58.259Z,2.00
2022-08-30T04:56:04.113Z,2.28
2022-08-30T05:01:14.741Z,2.38
2022-08-30T05:06:25.704Z,2.60
2022-08-30T05:11:31.981Z,2.17
2022-08-30T05:16:39.114Z,2.13
2022-08-30T05:21:44.640Z,1.67
2022-08-30T05:26:50.196Z,1.75
2022-08-30T05:31:56.970Z,1.63
2022-08-30T05:37:03.315Z,1.80
2022-08-30T05:42:10.044Z,1.85
2022-08-30T05:47:18.065Z,1.02
2022-08-30T05:52:23.768Z,1.80
2022-08-30T05:57:29.301Z,1.13
2022-08-30T06:02:36.445Z,1.52
2022-08-30T06:07:42.348Z,1.42
2022-08-30T06:12:47.913Z,1.23
2022-08-30T06:17:55.197Z,1.27
2022-08-30T06:23:01.115Z,1.10
2022-08-30T06:28:08.028Z,1.08
2022-08-30T06:33:15.458Z,0.98
2022-08-30T06:38:21.027Z,1.00
2022-08-30T06:43:26.447Z,0.90
2022-08-30T06:48:33.435Z,1.00
2022-08-30T06:53:39.181Z,0.80
2022-08-30T06:58:46.682Z,0.65
2022-08-30T07:03:55.738Z,0.80
2022-08-30T07:09:02.538Z,0.60
2022-08-30T07:14:10.497Z,0.70
2022-08-30T07:19:20.951Z,0.50
2022-08-30T07:24:26.986Z,0.65
2022-08-30T07:29:32.451Z,0.40
2022-08-30T07:41:52.921Z,0.80
2022-08-30T07:46:59.341Z,0.22
2022-08-30T07:52:05.867Z,0.55
2022-08-30T07:57:12.722Z,0.90
2022-08-30T08:02:21.750Z,0.47
2022-08-30T08:07:27.297Z,0.38
2022-08-30T08:12:34.880Z,0.35
2022-08-30T08:17:40.339Z,0.30
2022-08-30T08:22:45.863Z,0.63
2022-08-30T08:27:53.463Z,0.95
2022-08-30T08:33:00.689Z,0.43
2022-08-30T08:38:06.266Z,0.35
2022-08-30T08:43:16.229Z,0.20
2022-08-30T08:48:45.601Z,1.33
2022-08-30T08:53:59.637Z,0.20
2022-08-30T08:59:08.160Z,0.20
2022-08-30T09:04:17.667Z,0.73
2022-08-30T09:09:29.677Z,0.77
2022-08-30T09:14:44.252Z,0.57
2022-08-30T09:20:00.280Z,0.47
2022-08-30T09:25:09.293Z,0.30
2022-08-30T09:30:21.341Z,0.25
2022-08-30T09:35:28.474Z,0.20
2022-08-30T09:40:39.650Z,0.20
2022-08-30T09:45:49.696Z,0.30
2022-08-30T09:51:02.455Z,0.32
2022-08-30T09:56:10.708Z,0.30
2022-08-30T10:01:23.777Z,0.20
2022-08-30T10:06:34.040Z,0.28
2022-08-30T10:11:46.110Z,0.28
2022-08-30T10:16:59.878Z,0.30
2022-08-30T10:22:08.294Z,0.28
2022-08-30T10:27:18.349Z,0.10
2022-08-30T10:32:29.915Z,0.30
2022-08-30T10:37:40.181Z,0.15
2022-08-30T10:42:45.953Z,0.30
2022-08-30T10:47:58.146Z,0.15
2022-08-30T10:53:11.419Z,0.20
2022-08-30T10:58:18.841Z,0.30
2022-08-30T11:03:52.741Z,0.25
2022-08-30T11:09:19.731Z,0.28
2022-08-30T11:14:26.236Z,0.20
2022-08-30T11:19:40.934Z,0.20
2022-08-30T11:25:18.306Z,0.13
2022-08-30T11:30:51.650Z,0.45
2022-08-30T11:35:58.628Z,0.20
2022-08-30T11:41:10.523Z,0.15
2022-08-30T11:46:19.477Z,0.10
2022-08-30T11:52:23.658Z,0.20
2022-08-30T11:57:26.873Z,0.10
2022-08-30T12:02:48.782Z,0.20
2022-08-30T12:08:00.762Z,0.10
2022-08-30T12:13:06.605Z,0.40
2022-08-30T12:18:31.018Z,0.32
2022-08-30T12:23:44.748Z,0.45
2022-08-30T12:28:51.623Z,0.60
2022-08-30T12:34:00.738Z,0.30
2022-08-30T12:39:10.438Z,0.40
2022-08-30T12:44:18.617Z,0.20
2022-08-30T12:49:27.228Z,0.20
2022-08-30T12:54:35.393Z,0.17
2022-08-30T12:59:54.238Z,0.30
2022-08-30T13:05:34.589Z,0.30
2022-08-30T13:10:51.582Z,0.17
2022-08-30T13:15:57.590Z,0.22
2022-08-30T13:21:21.561Z,0.30
2022-08-30T13:26:29.663Z,0.20
2022-08-30T13:31:36.653Z,0.10
2022-08-30T13:36:47.734Z,0.10
2022-08-30T13:42:31.229Z,0.10
2022-08-30T13:47:37.628Z,0.20
2022-08-30T13:52:43.412Z,0.40
2022-08-30T13:57:55.126Z,0.38
2022-08-30T14:03:02.578Z,0.32
2022-08-30T14:08:44.430Z,0.75
2022-08-30T14:13:36.918Z,0.25
2022-08-30T14:18:43.711Z,0.28
2022-08-30T14:23:49.727Z,0.55
2022-08-30T14:28:56.875Z,0.30
2022-08-30T14:34:05.282Z,0.25
2022-08-30T14:39:14.752Z,0.50
2022-08-30T14:44:23.393Z,0.95
2022-08-30T14:49:29.563Z,0.40
2022-08-30T14:54:36.365Z,0.20
2022-08-30T14:59:43.229Z,0.40
2022-08-30T15:04:49.517Z,0.32
2022-08-30T15:09:55.484Z,0.40
2022-08-30T15:15:02.764Z,0.45
2022-08-30T15:20:10.796Z,0.40
2022-08-30T15:25:16.606Z,0.40
2022-08-30T15:30:24.942Z,0.35
2022-08-30T15:35:30.584Z,0.50
2022-08-30T15:40:37.728Z,0.70
2022-08-30T15:45:44.720Z,0.40
2022-08-30T15:50:58.486Z,0.57
2022-08-30T15:56:04.419Z,0.50
2022-08-30T16:01:12.523Z,0.25
2022-08-30T16:06:21.567Z,0.40
2022-08-30T16:11:28.040Z,0.68
2022-08-30T16:16:35.381Z,0.30
2022-08-30T16:21:43.731Z,0.50
2022-08-30T16:26:49.358Z,0.60
2022-08-30T16:31:56.354Z,0.47
2022-08-30T16:37:03.147Z,0.68
2022-08-30T16:42:08.863Z,0.45
2022-08-30T16:47:15.988Z,0.90
2022-08-30T16:52:22.502Z,0.50
2022-08-30T16:57:27.990Z,0.30
2022-08-30T17:02:35.249Z,0.73
2022-08-30T17:07:40.884Z,0.63
2022-08-30T17:12:46.681Z,0.50
2022-08-30T17:17:53.775Z,0.30
2022-08-30T17:23:00.082Z,0.75
2022-08-30T17:28:08.497Z,0.20
2022-08-30T17:33:17.781Z,0.20
2022-08-30T17:38:25.312Z,0.30
2022-08-30T17:43:31.174Z,0.22
2022-08-30T17:48:38.999Z,0.50
2022-08-30T17:53:46.306Z,0.60
2022-08-30T17:58:52.146Z,0.70
2022-08-30T18:04:01.889Z,1.50
2022-08-30T18:09:08.643Z,2.50
2022-08-30T18:14:15.310Z,0.80
2022-08-30T18:19:23.431Z,1.13
2022-08-30T18:24:30.040Z,0.90
2022-08-30T18:29:35.747Z,0.50
2022-08-30T18:34:44.278Z,5.05
2022-08-30T18:39:50.342Z,3.20
2022-08-30T18:44:55.892Z,0.80
2022-08-30T18:50:02.794Z,0.60
2022-08-30T18:55:10.479Z,1.03
2022-08-30T19:00:17.919Z,0.50
2022-08-30T19:05:27.068Z,0.35
2022-08-30T19:10:35.411Z,0.40
2022-08-30T19:15:41.155Z,0.70
2022-08-30T19:20:49.437Z,0.30
2022-08-30T19:25:56.243Z,0.40
2022-08-30T19:31:06.098Z,0.68
2022-08-30T19:36:14.337Z,0.80
2022-08-30T19:41:21.101Z,2.05
2022-08-30T19:46:28.536Z,0.65
2022-08-30T19:51:35.827Z,0.82
2022-08-30T19:56:41.450Z,0.40
2022-08-30T20:01:47.564Z,0.68
2022-08-30T20:06:54.768Z,0.88
2022-08-30T20:12:00.280Z,0.70
2022-08-30T20:17:05.921Z,0.60
2022-08-30T20:22:18.847Z,0.52
2022-08-30T20:27:24.627Z,0.65
2022-08-30T20:32:30.209Z,0.82
2022-08-30T20:37:37.659Z,0.70
2022-08-30T20:42:45.832Z,1.05
2022-08-30T20:47:53.170Z,0.68
2022-08-30T20:53:00.460Z,0.65
2022-08-30T20:58:06.194Z,0.50
2022-08-30T21:03:27.739Z,0.95
2022-08-30T21:08:35.102Z,0.65
2022-08-30T21:13:41.390Z,0.50
2022-08-30T21:18:47.080Z,0.50
2022-08-30T21:23:54.618Z,0.40
2022-08-30T21:29:00.269Z,0.63
2022-08-30T21:34:06.618Z,0.60
2022-08-30T21:39:15.242Z,0.65
2022-08-30T21:44:23.946Z,0.57
2022-08-30T21:49:29.574Z,0.80
2022-08-30T21:54:36.926Z,0.60
2022-08-30T21:59:42.766Z,0.63
2022-08-30T22:04:49.399Z,0.60
2022-08-30T22:09:56.602Z,0.80
2022-08-30T22:15:02.305Z,0.80
2022-08-30T22:20:10.314Z,0.90
2022-08-30T22:25:17.795Z,0.70
2022-08-30T22:30:23.344Z,0.70
2022-08-30T22:35:29.006Z,1.20
2022-08-30T22:40:36.024Z,0.65
2022-08-30T22:45:41.660Z,0.90
2022-08-30T22:50:47.385Z,0.70
2022-08-30T22:55:54.252Z,0.63
2022-08-30T23:01:00.911Z,0.63
2022-08-30T23:06:06.690Z,0.90
2022-08-30T23:11:14.275Z,0.90
2022-08-30T23:16:20.158Z,0.57
2022-08-30T23:21:27.240Z,0.80
2022-08-30T23:26:52.712Z,0.68
2022-08-30T23:32:15.713Z,1.02
2022-08-30T23:37:38.846Z,0.60
2022-08-30T23:43:03.235Z,1.50
2022-08-30T23:48:26.929Z,0.70
2022-08-30T23:53:50.042Z,0.70
2022-08-30T23:59:14.351Z,0.60
